Aviva — 5VCM5 — position and weather

sailwx.info

Track history (hours):
 
Tides and Currents Weather Stations Pressure Air Temp Water Temp Dewpoint Dewpoint Depression Visibility Wind Speed Wind Dir Waves Ship Positions

Aviva

Last reported at 2017-Sep-09 13:53 UTC. Time now 2017-Sep-24 19:30 UTC.
Position N 40°25' E 026°43'.
Warning: this ship's position is 15 days out of date.

Length 142 m; draft 6 m.

Type: Ship. MMSI: 671432000.

Date/timePositionNaut miles runAvg speedWind from/ knotsBaromVisibWave heightAir tempDewpointWater temp
2017-Sep-09 13:53N 40°25' E 026°43'67 6.8
2017-Sep-09 03:59N 40°50' E 028°05'5 8.9
2017-Sep-09 03:27N 40°51' E 028°11'4 8.9
2017-Sep-09 02:59N 40°52' E 028°16'14 8.6
2017-Sep-09 01:20N 40°53' E 028°35'4 8.5
2017-Sep-09 00:49N 40°54' E 028°41'3 8.3
2017-Sep-09 00:30N 40°55' E 028°44'4 7.4
2017-Sep-08 23:57N 40°55' E 028°49'5 7.1
2017-Sep-08 23:19N 40°57' E 028°55'2 3.3
2017-Sep-08 22:48N 40°58' E 028°57'1 2.4
2017-Sep-08 22:30N 40°58' E 028°57'10 7.3
2017-Sep-08 21:08N 41°07' E 029°04'1 7.2
2017-Sep-08 20:59N 41°08' E 029°04'3 7.3
2017-Sep-08 20:30N 41°11' E 029°05'4 7.7
2017-Sep-08 20:00N 41°15' E 029°07'3 6.7
2017-Sep-08 19:29N 41°16' E 029°03'1 1.7
2017-Sep-08 19:00N 41°16' E 029°02'  
Track history (hours):
 
Tides and Currents Weather Stations Pressure Air Temp Water Temp Dewpoint Dewpoint Depression Visibility Wind Speed Wind Dir Waves Ship Positions

Aviva

Last reported at 2017-Sep-09 13:53 UTC. Time now 2017-Sep-24 19:30 UTC.
Position N 40°25' E 026°43'.
Warning: this ship's position is 15 days out of date.

Length 142 m; draft 6 m.

Type: Ship. MMSI: 671432000.

Date/timePositionNaut miles runAvg speedWind from/ knotsBaromVisibWave heightAir tempDewpointWater temp
2017-Sep-09 13:53N 40°25' E 026°43'67 6.8
2017-Sep-09 03:59N 40°50' E 028°05'5 8.9
2017-Sep-09 03:27N 40°51' E 028°11'4 8.9
2017-Sep-09 02:59N 40°52' E 028°16'14 8.6
2017-Sep-09 01:20N 40°53' E 028°35'4 8.5
2017-Sep-09 00:49N 40°54' E 028°41'3 8.3
2017-Sep-09 00:30N 40°55' E 028°44'4 7.4
2017-Sep-08 23:57N 40°55' E 028°49'5 7.1
2017-Sep-08 23:19N 40°57' E 028°55'2 3.3
2017-Sep-08 22:48N 40°58' E 028°57'1 2.4
2017-Sep-08 22:30N 40°58' E 028°57'10 7.3
2017-Sep-08 21:08N 41°07' E 029°04'1 7.2
2017-Sep-08 20:59N 41°08' E 029°04'3 7.3
2017-Sep-08 20:30N 41°11' E 029°05'4 7.7
2017-Sep-08 20:00N 41°15' E 029°07'3 6.7
2017-Sep-08 19:29N 41°16' E 029°03'1 1.7
2017-Sep-08 19:00N 41°16' E 029°02'  

Dump ship's entire track history